Terminal Aerodrome Forecast
Issued by NWS St Louis, MO

Home | Current Version | Previous Version | Text Only | Print | Product List | Glossary On
Versions: 1 2 3 4 5 6 7 8 9 10 11 12 13 14 15 16 17 18 19 20 21 22
648
FTUS43 KLSX 031104 AAB
TAFSTL
TAF AMD
KSTL 031104Z 0311/0412 29004KT P6SM BKN007 BKN060
     FM031300 31007KT P6SM BKN035
     FM040100 25006KT P6SM SCT050
     FM040900 25011KT P6SM BKN120=

USA.gov is the U.S. government's official web portal to all federal, state and local government web resources and services.